sensor_id;sensor_type;location;lat;lon;timestamp;pressure;altitude;pressure_sealevel;temperature
27826;BMP280;15077;49.704;9.908;2023-05-20T00:00:37;98458.19;;;19.32
27826;BMP280;15077;49.704;9.908;2023-05-20T00:03:03;98459.03;;;19.32
27826;BMP280;15077;49.704;9.908;2023-05-20T00:05:29;98453.78;;;19.34
27826;BMP280;15077;49.704;9.908;2023-05-20T00:07:55;98442.78;;;19.32
27826;BMP280;15077;49.704;9.908;2023-05-20T00:10:21;98447.00;;;19.33
27826;BMP280;15077;49.704;9.908;2023-05-20T00:12:47;98444.44;;;19.33
27826;BMP280;15077;49.704;9.908;2023-05-20T00:15:13;98440.09;;;19.33
27826;BMP280;15077;49.704;9.908;2023-05-20T00:17:39;98446.88;;;19.34
27826;BMP280;15077;49.704;9.908;2023-05-20T00:20:05;98446.78;;;19.36
27826;BMP280;15077;49.704;9.908;2023-05-20T00:22:31;98439.91;;;19.36
27826;BMP280;15077;49.704;9.908;2023-05-20T00:24:59;98438.97;;;19.37
27826;BMP280;15077;49.704;9.908;2023-05-20T00:27:26;98436.41;;;19.37
27826;BMP280;15077;49.704;9.908;2023-05-20T00:29:54;98437.22;;;19.38
27826;BMP280;15077;49.704;9.908;2023-05-20T00:32:21;98441.53;;;19.37
27826;BMP280;15077;49.704;9.908;2023-05-20T00:34:58;98435.59;;;19.37
27826;BMP280;15077;49.704;9.908;2023-05-20T00:37:25;98430.44;;;19.37
27826;BMP280;15077;49.704;9.908;2023-05-20T00:39:51;98437.22;;;19.38
27826;BMP280;15077;49.704;9.908;2023-05-20T00:42:21;98431.25;;;19.37
27826;BMP280;15077;49.704;9.908;2023-05-20T00:44:47;98426.22;;;19.36
27826;BMP280;15077;49.704;9.908;2023-05-20T00:47:27;98422.00;;;19.35
27826;BMP280;15077;49.704;9.908;2023-05-20T00:49:54;98421.19;;;19.34
27826;BMP280;15077;49.704;9.908;2023-05-20T00:52:21;98419.53;;;19.33
27826;BMP280;15077;49.704;9.908;2023-05-20T00:54:48;98417.91;;;19.32
27826;BMP280;15077;49.704;9.908;2023-05-20T00:57:19;98419.53;;;19.33
27826;BMP280;15077;49.704;9.908;2023-05-20T00:59:47;98417.06;;;19.32
27826;BMP280;15077;49.704;9.908;2023-05-20T01:02:14;98412.03;;;19.30
27826;BMP280;15077;49.704;9.908;2023-05-20T01:04:42;98414.72;;;19.29
27826;BMP280;15077;49.704;9.908;2023-05-20T01:07:17;98419.16;;;19.27
27826;BMP280;15077;49.704;9.908;2023-05-20T01:09:44;98415.88;;;19.25
27826;BMP280;15077;49.704;9.908;2023-05-20T01:12:25;98415.16;;;19.23
27826;BMP280;15077;49.704;9.908;2023-05-20T01:15:10;98407.66;;;19.20
27826;BMP280;15077;49.704;9.908;2023-05-20T01:17:43;98417.00;;;19.21
27826;BMP280;15077;49.704;9.908;2023-05-20T01:20:14;98411.97;;;19.19
27826;BMP280;15077;49.704;9.908;2023-05-20T01:22:54;98403.69;;;19.16
27826;BMP280;15077;49.704;9.908;2023-05-20T01:25:21;98401.09;;;19.16
27826;BMP280;15077;49.704;9.908;2023-05-20T01:27:48;98406.25;;;19.16
27826;BMP280;15077;49.704;9.908;2023-05-20T01:30:15;98392.44;;;19.17
27826;BMP280;15077;49.704;9.908;2023-05-20T01:33:00;98393.50;;;19.14
27826;BMP280;15077;49.704;9.908;2023-05-20T01:35:30;98403.69;;;19.16
27826;BMP280;15077;49.704;9.908;2023-05-20T01:37:57;98398.66;;;19.14
27826;BMP280;15077;49.704;9.908;2023-05-20T01:40:24;98392.66;;;19.14
27826;BMP280;15077;49.704;9.908;2023-05-20T01:42:51;98397.00;;;19.13
27826;BMP280;15077;49.704;9.908;2023-05-20T01:45:20;98393.50;;;19.14
27826;BMP280;15077;49.704;9.908;2023-05-20T01:47:46;98395.22;;;19.14
27826;BMP280;15077;49.704;9.908;2023-05-20T01:50:12;98394.41;;;19.13
27826;BMP280;15077;49.704;9.908;2023-05-20T01:52:38;98394.53;;;19.12
27826;BMP280;15077;49.704;9.908;2023-05-20T01:55:05;98397.09;;;19.12
27826;BMP280;15077;49.704;9.908;2023-05-20T01:57:32;98394.53;;;19.12
27826;BMP280;15077;49.704;9.908;2023-05-20T01:59:58;98392.06;;;19.10
27826;BMP280;15077;49.704;9.908;2023-05-20T02:02:25;98387.94;;;19.08
27826;BMP280;15077;49.704;9.908;2023-05-20T02:04:54;98389.81;;;19.06
27826;BMP280;15077;49.704;9.908;2023-05-20T02:07:22;98382.22;;;19.04
27826;BMP280;15077;49.704;9.908;2023-05-20T02:09:49;98383.13;;;19.03
27826;BMP280;15077;49.704;9.908;2023-05-20T02:12:17;98384.88;;;19.03
27826;BMP280;15077;49.704;9.908;2023-05-20T02:14:47;98378.28;;;18.99
27826;BMP280;15077;49.704;9.908;2023-05-20T02:17:13;98377.69;;;18.96
27826;BMP280;15077;49.704;9.908;2023-05-20T02:19:44;98382.13;;;18.94
27826;BMP280;15077;49.704;9.908;2023-05-20T02:22:12;98390.03;;;18.91
27826;BMP280;15077;49.704;9.908;2023-05-20T02:24:40;98386.72;;;18.89
27826;BMP280;15077;49.704;9.908;2023-05-20T02:27:09;98385.19;;;18.86
27826;BMP280;15077;49.704;9.908;2023-05-20T02:29:35;98379.34;;;18.84
27826;BMP280;15077;49.704;9.908;2023-05-20T02:32:01;98372.56;;;18.83
27826;BMP280;15077;49.704;9.908;2023-05-20T02:34:28;98366.72;;;18.81
27826;BMP280;15077;49.704;9.908;2023-05-20T02:36:55;98378.75;;;18.81
27826;BMP280;15077;49.704;9.908;2023-05-20T02:39:21;98364.34;;;18.78
27826;BMP280;15077;49.704;9.908;2023-05-20T02:41:47;98366.22;;;18.76
27826;BMP280;15077;49.704;9.908;2023-05-20T02:44:14;98374.75;;;18.77
27826;BMP280;15077;49.704;9.908;2023-05-20T02:46:42;98365.47;;;18.74
27826;BMP280;15077;49.704;9.908;2023-05-20T02:49:08;98360.34;;;18.74
27826;BMP280;15077;49.704;9.908;2023-05-20T02:51:34;98371.56;;;18.73
27826;BMP280;15077;49.704;9.908;2023-05-20T02:54:01;98370.63;;;18.74
27826;BMP280;15077;49.704;9.908;2023-05-20T02:56:29;98355.31;;;18.73
27826;BMP280;15077;49.704;9.908;2023-05-20T02:58:58;98354.50;;;18.72
27826;BMP280;15077;49.704;9.908;2023-05-20T03:01:26;98364.78;;;18.72
27826;BMP280;15077;49.704;9.908;2023-05-20T03:03:53;98364.78;;;18.72
27826;BMP280;15077;49.704;9.908;2023-05-20T03:06:21;98358.84;;;18.72
27826;BMP280;15077;49.704;9.908;2023-05-20T03:08:49;98359.75;;;18.71
27826;BMP280;15077;49.704;9.908;2023-05-20T03:11:20;98365.59;;;18.73
27826;BMP280;15077;49.704;9.908;2023-05-20T03:13:47;98362.22;;;18.72
27826;BMP280;15077;49.704;9.908;2023-05-20T03:16:15;98361.41;;;18.72
27826;BMP280;15077;49.704;9.908;2023-05-20T03:18:41;98360.56;;;18.71
27826;BMP280;15077;49.704;9.908;2023-05-20T03:21:07;98357.19;;;18.71
27826;BMP280;15077;49.704;9.908;2023-05-20T03:23:36;98364.06;;;18.70
27826;BMP280;15077;49.704;9.908;2023-05-20T03:26:03;98359.84;;;18.69
27826;BMP280;15077;49.704;9.908;2023-05-20T03:28:31;98356.59;;;18.67
27826;BMP280;15077;49.704;9.908;2023-05-20T03:30:57;98366.84;;;18.67
27826;BMP280;15077;49.704;9.908;2023-05-20T03:33:25;98379.69;;;18.67
27826;BMP280;15077;49.704;9.908;2023-05-20T03:35:52;98372.00;;;18.67
27826;BMP280;15077;49.704;9.908;2023-05-20T03:38:20;98372.00;;;18.67
27826;BMP280;15077;49.704;9.908;2023-05-20T03:40:48;98370.34;;;18.66
27826;BMP280;15077;49.704;9.908;2023-05-20T03:43:15;98377.22;;;18.66
27826;BMP280;15077;49.704;9.908;2023-05-20T03:45:40;98380.59;;;18.66
27826;BMP280;15077;49.704;9.908;2023-05-20T03:48:06;98367.78;;;18.66
27826;BMP280;15077;49.704;9.908;2023-05-20T03:50:32;98378.94;;;18.65
27826;BMP280;15077;49.704;9.908;2023-05-20T03:52:58;98378.16;;;18.65
27826;BMP280;15077;49.704;9.908;2023-05-20T03:55:24;98367.88;;;18.65
27826;BMP280;15077;49.704;9.908;2023-05-20T03:57:50;98382.38;;;18.66
27826;BMP280;15077;49.704;9.908;2023-05-20T04:00:16;98385.75;;;18.66
27826;BMP280;15077;49.704;9.908;2023-05-20T04:02:43;98388.41;;;18.65
27826;BMP280;15077;49.704;9.908;2023-05-20T04:05:09;98384.09;;;18.65
27826;BMP280;15077;49.704;9.908;2023-05-20T04:07:35;98382.47;;;18.64
27826;BMP280;15077;49.704;9.908;2023-05-20T04:10:02;98386.75;;;18.64
27826;BMP280;15077;49.704;9.908;2023-05-20T04:12:28;98381.63;;;18.64
27826;BMP280;15077;49.704;9.908;2023-05-20T04:14:59;98389.22;;;18.65
27826;BMP280;15077;49.704;9.908;2023-05-20T04:17:29;98385.13;;;18.63
27826;BMP280;15077;49.704;9.908;2023-05-20T04:19:56;98378.34;;;18.62
27826;BMP280;15077;49.704;9.908;2023-05-20T04:22:24;98388.63;;;18.62
27826;BMP280;15077;49.704;9.908;2023-05-20T04:24:49;98381.84;;;18.61
27826;BMP280;15077;49.704;9.908;2023-05-20T04:27:16;98376.69;;;18.61
27826;BMP280;15077;49.704;9.908;2023-05-20T04:29:42;98375.88;;;18.60
27826;BMP280;15077;49.704;9.908;2023-05-20T04:32:12;98382.69;;;18.61
27826;BMP280;15077;49.704;9.908;2023-05-20T04:34:38;98381.84;;;18.61
27826;BMP280;15077;49.704;9.908;2023-05-20T04:37:04;98386.16;;;18.60
27826;BMP280;15077;49.704;9.908;2023-05-20T04:39:32;98377.66;;;18.60
27826;BMP280;15077;49.704;9.908;2023-05-20T04:41:58;98375.19;;;18.58
27826;BMP280;15077;49.704;9.908;2023-05-20T04:44:24;98373.44;;;18.59
27826;BMP280;15077;49.704;9.908;2023-05-20T04:46:51;98381.03;;;18.60
27826;BMP280;15077;49.704;9.908;2023-05-20T04:49:17;98377.53;;;18.61
27826;BMP280;15077;49.704;9.908;2023-05-20T04:51:43;98376.69;;;18.61
27826;BMP280;15077;49.704;9.908;2023-05-20T04:54:09;98374.03;;;18.62
27826;BMP280;15077;49.704;9.908;2023-05-20T04:56:35;98374.88;;;18.63
27826;BMP280;15077;49.704;9.908;2023-05-20T04:59:01;98374.88;;;18.63
27826;BMP280;15077;49.704;9.908;2023-05-20T05:01:26;98380.09;;;18.61
27826;BMP280;15077;49.704;9.908;2023-05-20T05:03:52;98382.69;;;18.61
27826;BMP280;15077;49.704;9.908;2023-05-20T05:06:18;98386.75;;;18.64
27826;BMP280;15077;49.704;9.908;2023-05-20T05:08:43;98385.94;;;18.63
27826;BMP280;15077;49.704;9.908;2023-05-20T05:11:10;98379.91;;;18.64
27826;BMP280;15077;49.704;9.908;2023-05-20T05:13:35;98366.97;;;18.66
27826;BMP280;15077;49.704;9.908;2023-05-20T05:16:02;98373.81;;;18.65
27826;BMP280;15077;49.704;9.908;2023-05-20T05:18:27;98362.03;;;18.63
27826;BMP280;15077;49.704;9.908;2023-05-20T05:21:04;98357.91;;;18.60
27826;BMP280;15077;49.704;9.908;2023-05-20T05:23:31;98363.25;;;18.57
27826;BMP280;15077;49.704;9.908;2023-05-20T05:25:57;98363.25;;;18.57
27826;BMP280;15077;49.704;9.908;2023-05-20T05:28:24;98350.44;;;18.57
27826;BMP280;15077;49.704;9.908;2023-05-20T05:30:50;98362.56;;;18.55
27826;BMP280;15077;49.704;9.908;2023-05-20T05:33:16;98359.16;;;18.55
27826;BMP280;15077;49.704;9.908;2023-05-20T05:35:42;98361.59;;;18.56
27826;BMP280;15077;49.704;9.908;2023-05-20T05:38:08;98355.44;;;18.59
27826;BMP280;15077;49.704;9.908;2023-05-20T05:40:35;98354.31;;;18.63
27826;BMP280;15077;49.704;9.908;2023-05-20T05:43:01;98344.66;;;18.66
27826;BMP280;15077;49.704;9.908;2023-05-20T05:45:26;98347.94;;;18.68
27826;BMP280;15077;49.704;9.908;2023-05-20T05:47:53;98340.84;;;18.72
27826;BMP280;15077;49.704;9.908;2023-05-20T05:50:19;98340.53;;;18.76
27826;BMP280;15077;49.704;9.908;2023-05-20T05:52:45;98339.28;;;18.82
27826;BMP280;15077;49.704;9.908;2023-05-20T05:55:11;98332.09;;;18.87
27826;BMP280;15077;49.704;9.908;2023-05-20T05:57:37;98341.13;;;18.92
27826;BMP280;15077;49.704;9.908;2023-05-20T06:00:04;98332.25;;;18.96
27826;BMP280;15077;49.704;9.908;2023-05-20T06:02:32;98336.09;;;19.03
27826;BMP280;15077;49.704;9.908;2023-05-20T06:05:05;98338.22;;;19.09
27826;BMP280;15077;49.704;9.908;2023-05-20T06:07:31;98342.13;;;19.14
27826;BMP280;15077;49.704;9.908;2023-05-20T06:09:56;98333.34;;;19.17
27826;BMP280;15077;49.704;9.908;2023-05-20T06:12:23;98337.13;;;19.24
27826;BMP280;15077;49.704;9.908;2023-05-20T06:14:48;98336.81;;;19.28
27826;BMP280;15077;49.704;9.908;2023-05-20T06:17:14;98341.63;;;19.33
27826;BMP280;15077;49.704;9.908;2023-05-20T06:19:40;98333.69;;;19.36
27826;BMP280;15077;49.704;9.908;2023-05-20T06:22:06;98331.97;;;19.36
27826;BMP280;15077;49.704;9.908;2023-05-20T06:24:33;98344.69;;;19.38
27826;BMP280;15077;49.704;9.908;2023-05-20T06:26:59;98333.00;;;19.34
27826;BMP280;15077;49.704;9.908;2023-05-20T06:29:25;98338.13;;;19.34
27826;BMP280;15077;49.704;9.908;2023-05-20T06:31:50;98340.69;;;19.34
27826;BMP280;15077;49.704;9.908;2023-05-20T06:34:16;98335.66;;;19.32
27826;BMP280;15077;49.704;9.908;2023-05-20T06:36:42;98330.53;;;19.32
27826;BMP280;15077;49.704;9.908;2023-05-20T06:39:07;98339.97;;;19.32
27826;BMP280;15077;49.704;9.908;2023-05-20T06:41:40;98327.00;;;19.33
27826;BMP280;15077;49.704;9.908;2023-05-20T06:44:06;98338.03;;;19.35
27826;BMP280;15077;49.704;9.908;2023-05-20T06:46:33;98330.66;;;19.42
27826;BMP280;15077;49.704;9.908;2023-05-20T06:48:59;98326.75;;;19.48
27826;BMP280;15077;49.704;9.908;2023-05-20T06:51:26;98321.16;;;19.54
27826;BMP280;15077;49.704;9.908;2023-05-20T06:53:53;98327.50;;;19.61
27826;BMP280;15077;49.704;9.908;2023-05-20T06:56:18;98314.91;;;19.69
27826;BMP280;15077;49.704;9.908;2023-05-20T06:58:46;98310.09;;;19.76
27826;BMP280;15077;49.704;9.908;2023-05-20T07:01:12;98316.56;;;19.81
27826;BMP280;15077;49.704;9.908;2023-05-20T07:03:37;98307.69;;;19.85
27826;BMP280;15077;49.704;9.908;2023-05-20T07:06:04;98310.06;;;19.88
27826;BMP280;15077;49.704;9.908;2023-05-20T07:08:30;98311.50;;;19.92
27826;BMP280;15077;49.704;9.908;2023-05-20T07:10:56;98302.47;;;19.97
27826;BMP280;15077;49.704;9.908;2023-05-20T07:13:21;98302.13;;;20.02
27826;BMP280;15077;49.704;9.908;2023-05-20T07:15:51;98302.53;;;20.08
27826;BMP280;15077;49.704;9.908;2023-05-20T07:18:17;98301.44;;;20.11
27826;BMP280;15077;49.704;9.908;2023-05-20T07:20:43;98299.59;;;20.13
27826;BMP280;15077;49.704;9.908;2023-05-20T07:23:09;98300.28;;;20.15
27826;BMP280;15077;49.704;9.908;2023-05-20T07:25:35;98300.97;;;20.17
27826;BMP280;15077;49.704;9.908;2023-05-20T07:28:01;98292.09;;;20.21
27826;BMP280;15077;49.704;9.908;2023-05-20T07:30:27;98274.66;;;20.24
27826;BMP280;15077;49.704;9.908;2023-05-20T07:32:53;98286.50;;;20.27
27826;BMP280;15077;49.704;9.908;2023-05-20T07:35:24;98272.59;;;20.29
27826;BMP280;15077;49.704;9.908;2023-05-20T07:37:50;98273.03;;;20.34
27826;BMP280;15077;49.704;9.908;2023-05-20T07:40:16;98262.16;;;20.42
27826;BMP280;15077;49.704;9.908;2023-05-20T07:42:41;98264.25;;;20.47
27826;BMP280;15077;49.704;9.908;2023-05-20T07:45:08;98262.72;;;20.56
27826;BMP280;15077;49.704;9.908;2023-05-20T07:47:34;98265.75;;;20.61
27826;BMP280;15077;49.704;9.908;2023-05-20T07:49:59;98259.31;;;20.66
27826;BMP280;15077;49.704;9.908;2023-05-20T07:52:25;98262.97;;;20.75
27826;BMP280;15077;49.704;9.908;2023-05-20T07:54:51;98264.03;;;20.83
27826;BMP280;15077;49.704;9.908;2023-05-20T07:57:16;98264.22;;;20.91
27826;BMP280;15077;49.704;9.908;2023-05-20T07:59:42;98268.88;;;20.97
27826;BMP280;15077;49.704;9.908;2023-05-20T08:02:08;98265.16;;;21.01
27826;BMP280;15077;49.704;9.908;2023-05-20T08:04:34;98261.13;;;21.08
27826;BMP280;15077;49.704;9.908;2023-05-20T08:07:00;98269.88;;;21.16
27826;BMP280;15077;49.704;9.908;2023-05-20T08:09:26;98270.09;;;21.24
27826;BMP280;15077;49.704;9.908;2023-05-20T08:11:51;98271.22;;;21.31
27826;BMP280;15077;49.704;9.908;2023-05-20T08:14:22;98262.88;;;21.39
27826;BMP280;15077;49.704;9.908;2023-05-20T08:16:48;98258.44;;;21.41
27826;BMP280;15077;49.704;9.908;2023-05-20T08:19:14;98253.84;;;21.44
27826;BMP280;15077;49.704;9.908;2023-05-20T08:21:40;98260.53;;;21.46
27826;BMP280;15077;49.704;9.908;2023-05-20T08:24:06;98262.63;;;21.52
27826;BMP280;15077;49.704;9.908;2023-05-20T08:26:32;98259.91;;;21.54
27826;BMP280;15077;49.704;9.908;2023-05-20T08:28:58;98251.56;;;21.61
27826;BMP280;15077;49.704;9.908;2023-05-20T08:31:24;98246.81;;;21.66
27826;BMP280;15077;49.704;9.908;2023-05-20T08:33:49;98242.00;;;21.73
27826;BMP280;15077;49.704;9.908;2023-05-20T08:36:17;98240.91;;;21.75
27826;BMP280;15077;49.704;9.908;2023-05-20T08:38:44;98241.38;;;21.80
27826;BMP280;15077;49.704;9.908;2023-05-20T08:41:09;98245.44;;;21.83
27826;BMP280;15077;49.704;9.908;2023-05-20T08:43:36;98244.09;;;21.88
27826;BMP280;15077;49.704;9.908;2023-05-20T08:46:02;98241.16;;;21.92
27826;BMP280;15077;49.704;9.908;2023-05-20T08:48:32;98239.81;;;21.98
27826;BMP280;15077;49.704;9.908;2023-05-20T08:50:58;98245.66;;;22.00
27826;BMP280;15077;49.704;9.908;2023-05-20T08:53:27;98234.81;;;22.06
27826;BMP280;15077;49.704;9.908;2023-05-20T08:55:58;98228.59;;;22.08
27826;BMP280;15077;49.704;9.908;2023-05-20T08:58:25;98226.56;;;22.12
27826;BMP280;15077;49.704;9.908;2023-05-20T09:00:52;98222.53;;;22.19
27826;BMP280;15077;49.704;9.908;2023-05-20T09:03:18;98215.22;;;22.24
27826;BMP280;15077;49.704;9.908;2023-05-20T09:05:48;98217.16;;;22.31
27826;BMP280;15077;49.704;9.908;2023-05-20T09:08:14;98222.91;;;22.35
27826;BMP280;15077;49.704;9.908;2023-05-20T09:10:40;98220.19;;;22.45
27826;BMP280;15077;49.704;9.908;2023-05-20T09:13:10;98221.59;;;22.49
27826;BMP280;15077;49.704;9.908;2023-05-20T09:15:37;98222.13;;;22.53
27826;BMP280;15077;49.704;9.908;2023-05-20T09:18:06;98224.19;;;22.59
27826;BMP280;15077;49.704;9.908;2023-05-20T09:20:36;98230.31;;;22.67
27826;BMP280;15077;49.704;9.908;2023-05-20T09:23:05;98229.78;;;22.73
27826;BMP280;15077;49.704;9.908;2023-05-20T09:25:31;98236.06;;;22.80
27826;BMP280;15077;49.704;9.908;2023-05-20T09:27:57;98237.16;;;22.87
27826;BMP280;15077;49.704;9.908;2023-05-20T09:30:23;98240.16;;;22.92
27826;BMP280;15077;49.704;9.908;2023-05-20T09:32:58;98238.28;;;22.94
27826;BMP280;15077;49.704;9.908;2023-05-20T09:35:26;98242.13;;;22.99
27826;BMP280;15077;49.704;9.908;2023-05-20T09:37:57;98238.84;;;23.07
27826;BMP280;15077;49.704;9.908;2023-05-20T09:40:26;98245.53;;;23.19
27826;BMP280;15077;49.704;9.908;2023-05-20T09:43:01;98244.31;;;23.32
27826;BMP280;15077;49.704;9.908;2023-05-20T09:45:28;98239.25;;;23.40
27826;BMP280;15077;49.704;9.908;2023-05-20T09:47:55;98236.66;;;23.49
27826;BMP280;15077;49.704;9.908;2023-05-20T09:50:23;98232.59;;;23.56
27826;BMP280;15077;49.704;9.908;2023-05-20T09:52:51;98227.81;;;23.61
27826;BMP280;15077;49.704;9.908;2023-05-20T09:55:19;98227.41;;;23.66
27826;BMP280;15077;49.704;9.908;2023-05-20T09:57:46;98220.03;;;23.71
27826;BMP280;15077;49.704;9.908;2023-05-20T10:00:14;98210.66;;;23.70
27826;BMP280;15077;49.704;9.908;2023-05-20T10:02:49;98211.47;;;23.70
27826;BMP280;15077;49.704;9.908;2023-05-20T10:05:38;98218.84;;;23.65
27826;BMP280;15077;49.704;9.908;2023-05-20T10:17:03;98193.19;;;23.81
27826;BMP280;15077;49.704;9.908;2023-05-20T10:19:34;98184.97;;;23.95
27826;BMP280;15077;49.704;9.908;2023-05-20T10:22:05;98186.44;;;24.07
27826;BMP280;15077;49.704;9.908;2023-05-20T10:24:37;98187.22;;;24.17
27826;BMP280;15077;49.704;9.908;2023-05-20T10:27:10;98188.78;;;24.27
27826;BMP280;15077;49.704;9.908;2023-05-20T10:29:56;98180.03;;;24.28
27826;BMP280;15077;49.704;9.908;2023-05-20T10:32:32;98173.50;;;24.34
27826;BMP280;15077;49.704;9.908;2023-05-20T10:35:08;98181.28;;;24.34
27826;BMP280;15077;49.704;9.908;2023-05-20T10:37:43;98166.66;;;24.33
27826;BMP280;15077;49.704;9.908;2023-05-20T10:40:12;98176.47;;;24.39
27826;BMP280;15077;49.704;9.908;2023-05-20T10:42:39;98175.91;;;24.44
27826;BMP280;15077;49.704;9.908;2023-05-20T10:45:06;98164.25;;;24.58
27826;BMP280;15077;49.704;9.908;2023-05-20T10:47:34;98164.31;;;24.66
27826;BMP280;15077;49.704;9.908;2023-05-20T10:50:00;98165.22;;;24.74
27826;BMP280;15077;49.704;9.908;2023-05-20T10:52:37;98157.66;;;24.81
27826;BMP280;15077;49.704;9.908;2023-05-20T10:55:04;98165.59;;;24.79
27826;BMP280;15077;49.704;9.908;2023-05-20T10:57:30;98149.06;;;24.80
27826;BMP280;15077;49.704;9.908;2023-05-20T10:59:59;98160.09;;;24.82
27826;BMP280;15077;49.704;9.908;2023-05-20T11:02:26;98162.69;;;24.82
27826;BMP280;15077;49.704;9.908;2023-05-20T11:04:55;98156.00;;;24.80
27826;BMP280;15077;49.704;9.908;2023-05-20T11:07:26;98153.06;;;24.75
27826;BMP280;15077;49.704;9.908;2023-05-20T11:09:57;98148.69;;;24.75
27826;BMP280;15077;49.704;9.908;2023-05-20T11:12:25;98153.56;;;24.78
27826;BMP280;15077;49.704;9.908;2023-05-20T11:14:52;98149.59;;;24.84
27826;BMP280;15077;49.704;9.908;2023-05-20T11:17:18;98155.28;;;24.87
27826;BMP280;15077;49.704;9.908;2023-05-20T11:19:46;98149.44;;;24.85
27826;BMP280;15077;49.704;9.908;2023-05-20T11:22:11;98145.75;;;24.88
27826;BMP280;15077;49.704;9.908;2023-05-20T11:24:37;98140.75;;;24.94
27826;BMP280;15077;49.704;9.908;2023-05-20T11:27:03;98139.25;;;25.01
27826;BMP280;15077;49.704;9.908;2023-05-20T11:29:29;98133.97;;;25.10
27826;BMP280;15077;49.704;9.908;2023-05-20T11:31:58;98131.44;;;25.18
27826;BMP280;15077;49.704;9.908;2023-05-20T11:34:24;98138.63;;;25.24
27826;BMP280;15077;49.704;9.908;2023-05-20T11:36:58;98119.84;;;25.30
27826;BMP280;15077;49.704;9.908;2023-05-20T11:39:29;98115.56;;;25.39
27826;BMP280;15077;49.704;9.908;2023-05-20T11:41:56;98118.19;;;25.46
27826;BMP280;15077;49.704;9.908;2023-05-20T11:44:23;98118.22;;;25.54
27826;BMP280;15077;49.704;9.908;2023-05-20T11:46:49;98122.50;;;25.63
27826;BMP280;15077;49.704;9.908;2023-05-20T11:49:16;98121.28;;;25.75
27826;BMP280;15077;49.704;9.908;2023-05-20T11:51:42;98119.06;;;25.80
27826;BMP280;15077;49.704;9.908;2023-05-20T11:54:09;98125.25;;;25.87
27826;BMP280;15077;49.704;9.908;2023-05-20T11:56:38;98112.63;;;25.92
27826;BMP280;15077;49.704;9.908;2023-05-20T11:59:08;98114.13;;;25.69
27826;BMP280;15077;49.704;9.908;2023-05-20T12:01:38;98120.38;;;25.84
27826;BMP280;15077;49.704;9.908;2023-05-20T12:04:11;98110.19;;;25.90
27826;BMP280;15077;49.704;9.908;2023-05-20T12:06:41;98100.28;;;25.94
27826;BMP280;15077;49.704;9.908;2023-05-20T12:09:10;98101.91;;;25.95
27826;BMP280;15077;49.704;9.908;2023-05-20T12:11:38;98103.25;;;25.99
27826;BMP280;15077;49.704;9.908;2023-05-20T12:14:06;98106.31;;;26.02
27826;BMP280;15077;49.704;9.908;2023-05-20T12:16:33;98102.63;;;26.05
27826;BMP280;15077;49.704;9.908;2023-05-20T12:18:59;98103.59;;;26.12
27826;BMP280;15077;49.704;9.908;2023-05-20T12:21:27;98092.56;;;26.18
27826;BMP280;15077;49.704;9.908;2023-05-20T12:23:53;98086.75;;;26.24
27826;BMP280;15077;49.704;9.908;2023-05-20T12:26:27;98092.44;;;26.27
27826;BMP280;15077;49.704;9.908;2023-05-20T12:28:53;98094.59;;;26.32
27826;BMP280;15077;49.704;9.908;2023-05-20T12:31:20;98083.88;;;26.35
27826;BMP280;15077;49.704;9.908;2023-05-20T12:33:45;98085.53;;;26.43
27826;BMP280;15077;49.704;9.908;2023-05-20T12:36:12;98082.78;;;26.53
27826;BMP280;15077;49.704;9.908;2023-05-20T12:38:39;98076.13;;;26.58
27826;BMP280;15077;49.704;9.908;2023-05-20T12:41:04;98081.81;;;26.62
27826;BMP280;15077;49.704;9.908;2023-05-20T12:43:30;98081.66;;;26.63
27826;BMP280;15077;49.704;9.908;2023-05-20T12:45:57;98090.13;;;26.65
27826;BMP280;15077;49.704;9.908;2023-05-20T12:48:25;98075.63;;;26.71
27826;BMP280;15077;49.704;9.908;2023-05-20T12:50:50;98071.91;;;26.73
27826;BMP280;15077;49.704;9.908;2023-05-20T12:53:20;98077.13;;;26.73
27826;BMP280;15077;49.704;9.908;2023-05-20T12:55:46;98081.34;;;26.74
27826;BMP280;15077;49.704;9.908;2023-05-20T12:58:12;98081.03;;;26.77
27826;BMP280;15077;49.704;9.908;2023-05-20T13:00:37;98083.78;;;26.76
27826;BMP280;15077;49.704;9.908;2023-05-20T13:03:03;98083.78;;;26.76
27826;BMP280;15077;49.704;9.908;2023-05-20T13:05:29;98077.47;;;26.78
27826;BMP280;15077;49.704;9.908;2023-05-20T13:07:55;98071.94;;;26.81
27826;BMP280;15077;49.704;9.908;2023-05-20T13:10:20;98077.94;;;26.82
27826;BMP280;15077;49.704;9.908;2023-05-20T13:12:46;98073.88;;;26.79
27826;BMP280;15077;49.704;9.908;2023-05-20T13:15:14;98066.38;;;26.76
27826;BMP280;15077;49.704;9.908;2023-05-20T13:17:41;98065.75;;;26.74
27826;BMP280;15077;49.704;9.908;2023-05-20T13:20:07;98062.19;;;26.75
27826;BMP280;15077;49.704;9.908;2023-05-20T13:22:33;98056.81;;;26.77
27826;BMP280;15077;49.704;9.908;2023-05-20T13:25:00;98048.53;;;26.81
27826;BMP280;15077;49.704;9.908;2023-05-20T13:27:25;98056.34;;;26.81
27826;BMP280;15077;49.704;9.908;2023-05-20T13:29:51;98045.09;;;26.81
27826;BMP280;15077;49.704;9.908;2023-05-20T13:32:17;98054.69;;;26.80
27826;BMP280;15077;49.704;9.908;2023-05-20T13:34:43;98048.19;;;26.76
27826;BMP280;15077;49.704;9.908;2023-05-20T13:37:12;98049.19;;;26.75
27826;BMP280;15077;49.704;9.908;2023-05-20T13:39:38;98049.81;;;26.77
27826;BMP280;15077;49.704;9.908;2023-05-20T13:42:04;98044.94;;;26.74
27826;BMP280;15077;49.704;9.908;2023-05-20T13:44:29;98030.78;;;26.69
27826;BMP280;15077;49.704;9.908;2023-05-20T13:46:55;98041.34;;;26.67
27826;BMP280;15077;49.704;9.908;2023-05-20T13:49:21;98051.91;;;26.66
27826;BMP280;15077;49.704;9.908;2023-05-20T13:51:47;98040.03;;;26.63
27826;BMP280;15077;49.704;9.908;2023-05-20T13:54:13;98040.22;;;26.62
27826;BMP280;15077;49.704;9.908;2023-05-20T13:56:38;98037.44;;;26.63
27826;BMP280;15077;49.704;9.908;2023-05-20T13:59:04;98043.31;;;26.65
27826;BMP280;15077;49.704;9.908;2023-05-20T14:01:30;98045.59;;;26.68
27826;BMP280;15077;49.704;9.908;2023-05-20T14:03:58;98030.97;;;26.75
27826;BMP280;15077;49.704;9.908;2023-05-20T14:06:26;98035.53;;;26.81
27826;BMP280;15077;49.704;9.908;2023-05-20T14:08:55;98031.28;;;26.88
27826;BMP280;15077;49.704;9.908;2023-05-20T14:11:21;98026.78;;;26.90
27826;BMP280;15077;49.704;9.908;2023-05-20T14:13:47;98016.03;;;26.93
27826;BMP280;15077;49.704;9.908;2023-05-20T14:16:13;98014.72;;;26.97
27826;BMP280;15077;49.704;9.908;2023-05-20T14:18:38;98011.28;;;27.04